Time;durP1;ratioP1;P1;durP2;ratioP2;P2;SDS_P1;SDS_P2;PMS_P1;PMS_P2;Temp;Humidity;BMP_temperature;BMP_pressure;BME280_temperature;BME280_humidity;BME280_pressure;Samples;Min_cycle;Max_cycle;Signal;HPM_P1;HPM_P2
2022/08/07 10:54:59;;;;;;;1.92;1.80;;;;;;;;;;5004074;28;20060;-54
2022/08/07 10:57:38;;;;;;;2.05;1.80;;;;;;;;;;4991849;28;20559;-55
2022/08/07 11:00:09;;;;;;;2.33;2.13;;;;;;;;;;4994026;28;20031;-55
2022/08/07 11:02:46;;;;;;;2.45;1.85;;;;;;;;;;5006870;28;20477;-56
2022/08/07 11:05:14;;;;;;;3.00;1.77;;;;;;;;;;4995117;28;20084;-56
2022/08/07 11:07:59;;;;;;;2.75;1.83;;;;;;;;;;4999235;28;20034;-54
2022/08/07 11:10:37;;;;;;;5.63;2.28;;;;;;;;;;5006828;28;20034;-55
2022/08/07 11:13:08;;;;;;;4.72;1.70;;;;;;;;;;4993820;28;20045;-55
2022/08/07 11:15:37;;;;;;;3.75;2.00;;;;;;;;;;4998082;28;20384;-54
2022/08/07 11:18:09;;;;;;;2.20;2.00;;;;;;;;;;5007011;28;20121;-55
2022/08/07 11:20:37;;;;;;;1.80;1.52;;;;;;;;;;5004334;28;20097;-55
2022/08/07 11:23:19;;;;;;;1.70;1.45;;;;;;;;;;4993617;28;20027;-53
2022/08/07 11:25:50;;;;;;;4.85;1.67;;;;;;;;;;4991694;28;20041;-54
2022/08/07 11:28:20;;;;;;;1.45;1.35;;;;;;;;;;4991744;28;20026;-55
2022/08/07 11:30:56;;;;;;;4.35;1.52;;;;;;;;;;4991273;28;20493;-53
2022/08/07 11:33:34;;;;;;;5.35;1.80;;;;;;;;;;5000166;28;20022;-55
2022/08/07 11:36:12;;;;;;;2.67;1.60;;;;;;;;;;4990386;28;20489;-55
2022/08/07 11:38:58;;;;;;;2.65;1.50;;;;;;;;;;4995742;28;20393;-53
2022/08/07 11:41:28;;;;;;;2.05;1.55;;;;;;;;;;4985562;28;20046;-57
2022/08/07 11:44:08;;;;;;;2.28;1.75;;;;;;;;;;5014758;28;20093;-55
2022/08/07 11:47:00;;;;;;;3.00;1.63;;;;;;;;;;5012369;28;20108;-56
2022/08/07 11:49:29;;;;;;;2.63;1.60;;;;;;;;;;4995252;28;20396;-54
2022/08/07 11:52:01;;;;;;;3.10;1.77;;;;;;;;;;4977811;28;20486;-56
2022/08/07 11:54:37;;;;;;;2.08;1.77;;;;;;;;;;4978796;28;20484;-56
2022/08/07 11:57:03;;;;;;;3.30;1.77;;;;;;;;;;4977479;28;20085;-56
2022/08/07 11:59:35;;;;;;;6.50;1.92;;;;;;;;;;4995260;28;20022;-55
2022/08/07 12:02:01;;;;;;;3.33;1.65;;;;;;;;;;4995553;28;20030;-54
2022/08/07 12:04:36;;;;;;;1.63;1.33;;;;;;;;;;4983098;28;20022;-57
2022/08/07 12:07:12;;;;;;;1.67;1.40;;;;;;;;;;5014065;28;20030;-54
2022/08/07 12:09:47;;;;;;;4.63;1.50;;;;;;;;;;5013505;28;20095;-56
2022/08/07 12:12:17;;;;;;;2.53;1.48;;;;;;;;;;4995055;28;20089;-54
2022/08/07 12:14:47;;;;;;;1.58;1.27;;;;;;;;;;5009282;28;20091;-56
2022/08/07 12:17:15;;;;;;;1.65;1.40;;;;;;;;;;5014297;28;20021;-56
2022/08/07 12:19:46;;;;;;;1.63;1.25;;;;;;;;;;5013169;28;20046;-56
2022/08/07 12:22:17;;;;;;;4.35;1.25;;;;;;;;;;5008698;28;20404;-54
2022/08/07 12:27:48;;;;;;;1.50;1.40;;;;;;;;;;4997007;28;20603;-54
2022/08/07 12:30:15;;;;;;;1.45;1.33;;;;;;;;;;4979794;28;20076;-55
2022/08/07 12:32:44;;;;;;;3.38;1.90;;;;;;;;;;4994303;28;20073;-55
2022/08/07 12:35:12;;;;;;;1.75;1.52;;;;;;;;;;4994509;28;20534;-56
2022/08/07 12:37:39;;;;;;;2.15;1.95;;;;;;;;;;4994402;28;20022;-54
2022/08/07 12:40:06;;;;;;;12.30;1.83;;;;;;;;;;4995213;28;20022;-54
2022/08/07 12:42:32;;;;;;;2.97;1.52;;;;;;;;;;4996843;28;20034;-54
2022/08/07 12:45:02;;;;;;;1.85;1.58;;;;;;;;;;5007900;28;20065;-55
2022/08/07 12:47:40;;;;;;;2.97;1.45;;;;;;;;;;4994543;28;20443;-56
2022/08/07 12:50:21;;;;;;;4.85;1.60;;;;;;;;;;4994066;28;20033;-54
2022/08/07 12:52:49;;;;;;;1.98;1.55;;;;;;;;;;5006004;28;20117;-54
2022/08/07 12:55:28;;;;;;;2.30;1.58;;;;;;;;;;5012105;28;20034;-55
2022/08/07 12:57:57;;;;;;;21.75;2.92;;;;;;;;;;4994055;28;20416;-55
2022/08/07 13:00:39;;;;;;;2.28;1.60;;;;;;;;;;5004640;28;20053;-55
2022/08/07 13:03:08;;;;;;;3.72;1.50;;;;;;;;;;4996027;28;20029;-56
2022/08/07 13:05:44;;;;;;;2.42;1.52;;;;;;;;;;5010575;28;20058;-54
2022/08/07 13:08:26;;;;;;;1.30;1.20;;;;;;;;;;4993696;28;20045;-53
2022/08/07 13:11:05;;;;;;;1.75;1.58;;;;;;;;;;5008015;28;20026;-53
2022/08/07 13:13:46;;;;;;;1.70;1.58;;;;;;;;;;4999519;28;20041;-55
2022/08/07 13:16:16;;;;;;;3.35;1.67;;;;;;;;;;5009391;28;20037;-56
2022/08/07 13:18:53;;;;;;;1.70;1.60;;;;;;;;;;5013208;28;20484;-53
2022/08/07 13:21:42;;;;;;;2.10;1.48;;;;;;;;;;4997022;28;20555;-57
2022/08/07 13:24:17;;;;;;;1.83;1.67;;;;;;;;;;4965632;28;20042;-54
2022/08/07 13:26:46;;;;;;;1.80;1.48;;;;;;;;;;4993442;28;20026;-55
2022/08/07 13:29:35;;;;;;;3.70;1.30;;;;;;;;;;4994033;28;20400;-57
2022/08/07 13:32:06;;;;;;;1.75;1.45;;;;;;;;;;4984651;28;20042;-57
2022/08/07 13:34:35;;;;;;;2.53;1.40;;;;;;;;;;4978191;28;20061;-56
2022/08/07 13:37:11;;;;;;;1.67;1.58;;;;;;;;;;5012715;28;20026;-57
2022/08/07 13:39:56;;;;;;;1.88;1.50;;;;;;;;;;5003245;28;20184;-57
2022/08/07 13:42:26;;;;;;;3.58;1.52;;;;;;;;;;5005891;28;20018;-56
2022/08/07 13:44:54;;;;;;;1.60;1.20;;;;;;;;;;4999519;28;20107;-56
2022/08/07 13:47:21;;;;;;;2.05;1.20;;;;;;;;;;5003216;28;20036;-57
2022/08/07 13:49:48;;;;;;;1.30;1.20;;;;;;;;;;4992945;28;20042;-55
2022/08/07 13:52:15;;;;;;;2.63;1.38;;;;;;;;;;5000156;28;20044;-55
2022/08/07 13:54:41;;;;;;;1.95;1.30;;;;;;;;;;5010135;28;20468;-55
2022/08/07 13:57:13;;;;;;;4.18;1.52;;;;;;;;;;5012382;28;20038;-56
2022/08/07 13:59:44;;;;;;;17.48;2.25;;;28.40;57.80;;;;;;5005798;28;20034;-52
2022/08/07 14:02:13;;;;;;;2.30;1.65;;;47.90;27.60;;;;;;4993860;28;20022;-53
2022/08/07 14:05:00;;;;;;;2.45;1.73;;;47.70;26.70;;;;;;4992780;28;20101;-55
2022/08/07 14:07:31;;;;;;;7.78;1.50;;;47.90;27.10;;;;;;4993219;28;20026;-54
2022/08/07 14:09:59;;;;;;;4.93;1.60;;;48.20;26.80;;;;;;5001945;28;20061;-56
2022/08/07 14:12:47;;;;;;;1.45;1.30;;;48.20;26.70;;;;;;4992608;28;20034;-55
2022/08/07 14:15:30;;;;;;;1.27;1.17;;;48.30;26.20;;;;;;4992491;28;20022;-54
2022/08/07 14:18:01;;;;;;;1.35;1.10;;;48.60;26.40;;;;;;4991721;28;20668;-55
2022/08/07 14:20:30;;;;;;;1.77;1.30;;;49.10;26.40;;;;;;4975073;28;20122;-54
2022/08/07 14:23:19;;;;;;;2.25;1.52;;;49.10;26.10;;;;;;4992171;28;20049;-55
2022/08/07 14:25:54;;;;;;;2.35;1.65;;;49.30;26.20;;;;;;4989368;28;20038;-55
2022/08/07 14:28:22;;;;;;;1.92;1.80;;;49.70;26.00;;;;;;4992454;28;20027;-53
2022/08/07 14:30:49;;;;;;;4.82;1.60;;;49.90;25.90;;;;;;4992479;28;20084;-56
2022/08/07 14:33:15;;;;;;;1.40;1.30;;;50.00;25.60;;;;;;4992121;28;20058;-55
2022/08/07 14:35:42;;;;;;;1.70;1.48;;;50.10;25.20;;;;;;4992430;28;20488;-58
2022/08/07 14:38:09;;;;;;;1.42;1.33;;;49.70;25.70;;;;;;4995458;28;20022;-58
2022/08/07 14:40:36;;;;;;;1.33;1.30;;;49.60;25.90;;;;;;4990659;28;20030;-58
2022/08/07 14:43:07;;;;;;;1.60;1.50;;;49.70;25.90;;;;;;4991082;28;20022;-58
2022/08/07 14:45:42;;;;;;;1.05;1.05;;;49.60;25.30;;;;;;4992227;28;20041;-58
2022/08/07 14:48:08;;;;;;;1.50;1.30;;;49.50;25.60;;;;;;4992290;28;20056;-58
2022/08/07 14:50:40;;;;;;;1.52;1.42;;;49.50;26.00;;;;;;4986535;28;20085;-58
2022/08/07 14:53:07;;;;;;;3.08;1.20;;;49.60;25.80;;;;;;4996653;28;20030;-58
2022/08/07 14:55:34;;;;;;;23.95;3.78;;;49.70;25.50;;;;;;4993637;28;20385;-58
2022/08/07 14:58:02;;;;;;;1.40;1.30;;;49.80;25.40;;;;;;4991721;28;20508;-58
2022/08/07 15:00:30;;;;;;;1.50;1.38;;;49.90;25.40;;;;;;4984173;28;20038;-59
2022/08/07 15:02:59;;;;;;;3.28;1.50;;;50.10;25.40;;;;;;4996559;28;20026;-59
2022/08/07 15:05:28;;;;;;;2.03;1.33;;;49.70;25.00;;;;;;4974455;28;20485;-59
2022/08/07 15:07:55;;;;;;;1.80;1.10;;;49.40;25.40;;;;;;4995849;28;20105;-59
2022/08/07 15:10:23;;;;;;;4.13;1.50;;;49.20;25.50;;;;;;4996120;28;20033;-59
2022/08/07 15:12:53;;;;;;;1.70;1.25;;;48.80;25.90;;;;;;4995773;28;20026;-58
2022/08/07 15:15:47;;;;;;;3.70;1.20;;;48.50;25.20;;;;;;4995558;28;20088;-59
2022/08/07 15:18:18;;;;;;;1.58;1.10;;;48.00;25.80;;;;;;4993661;28;20080;-59
2022/08/07 15:20:46;;;;;;;1.58;1.30;;;47.60;25.80;;;;;;5002495;28;20033;-58
2022/08/07 15:23:24;;;;;;;1.52;1.20;;;46.90;26.10;;;;;;5015252;28;20030;-59
2022/08/07 15:25:56;;;;;;;1.20;1.05;;;45.90;26.70;;;;;;4999810;28;20101;-57
2022/08/07 15:28:27;;;;;;;1.20;1.17;;;44.50;27.40;;;;;;4995859;28;20046;-58
2022/08/07 15:30:54;;;;;;;2.05;1.15;;;;;;;;;;4995751;28;20026;-57
2022/08/07 15:33:21;;;;;;;4.13;1.40;;;;;;;;;;4978079;28;20026;-58
2022/08/07 15:35:51;;;;;;;2.10;0.98;;;;;;;;;;4995441;28;20038;-58
2022/08/07 15:38:19;;;;;;;1.20;1.15;;;;;;;;;;4995737;28;20041;-57
2022/08/07 15:40:46;;;;;;;1.10;1.10;;;;;;;;;;4977797;28;20030;-58
2022/08/07 15:43:16;;;;;;;1.40;1.30;;;;;;;;;;4995231;28;20128;-58
2022/08/07 15:45:42;;;;;;;1.88;1.65;;;;;;;;;;4977809;28;20033;-58
2022/08/07 15:48:26;;;;;;;4.50;1.20;;;;;;;;;;4995302;28;20030;-58
2022/08/07 15:50:54;;;;;;;1.42;1.33;;;;;;;;;;4995215;28;20485;-57
2022/08/07 15:53:26;;;;;;;3.88;1.70;;;;;;;;;;4995145;28;20508;-57
2022/08/07 15:55:57;;;;;;;1.58;1.48;;;43.60;28.20;;;;;;4977449;28;20129;-57
2022/08/07 15:58:34;;;;;;;1.73;1.63;;;37.30;35.00;;;;;;4994799;28;20507;-58
2022/08/07 16:01:02;;;;;;;4.38;1.88;;;;;;;;;;4994887;28;20050;-57
2022/08/07 16:03:30;;;;;;;1.58;1.40;;;;;;;;;;4977093;28;20026;-57
2022/08/07 16:05:57;;;;;;;3.80;1.42;;;;;;;;;;4994775;28;20397;-57
2022/08/07 16:08:24;;;;;;;3.05;1.65;;;;;;;;;;4989384;28;20073;-57
2022/08/07 16:11:13;;;;;;;2.15;1.52;;;;;;;;;;4975620;28;20049;-57
2022/08/07 16:13:44;;;;;;;2.25;1.63;;;36.80;35.50;;;;;;4988907;28;20508;-58
2022/08/07 16:16:29;;;;;;;5.55;2.05;;;35.70;37.30;;;;;;4994597;28;20060;-57
2022/08/07 16:19:32;;;;;;;3.03;1.50;;;35.50;38.20;;;;;;4977495;28;20559;-58
2022/08/07 16:22:10;;;;;;;2.70;1.63;;;35.30;38.50;;;;;;4977015;28;20041;-57
2022/08/07 16:24:43;;;;;;;2.75;1.50;;;35.30;38.80;;;;;;4993151;28;20034;-58
2022/08/07 16:27:23;;;;;;;2.00;1.60;;;;;;;;;;4998564;28;20384;-57
2022/08/07 16:30:05;;;;;;;1.38;1.27;;;;;;;;;;5002627;28;20034;-57
2022/08/07 16:32:57;;;;;;;2.10;1.77;;;;;;;;;;4993821;28;20115;-59
2022/08/07 16:35:23;;;;;;;4.28;1.65;;;;;;;;;;4990803;28;20049;-57
2022/08/07 16:37:57;;;;;;;2.20;1.45;;;35.30;39.10;;;;;;5013900;28;20393;-57
2022/08/07 16:40:54;;;;;;;3.85;1.63;;;35.20;38.60;;;;;;5013873;28;20033;-57
2022/08/07 16:43:37;;;;;;;1.40;1.30;;;35.20;37.90;;;;;;5013807;28;20493;-57
2022/08/07 16:46:03;;;;;;;1.38;1.15;;;;;;;;;;4996492;28;20041;-57
2022/08/07 16:48:50;;;;;;;1.38;1.23;;;34.90;37.40;;;;;;5013756;28;20021;-57
2022/08/07 16:51:22;;;;;;;2.35;1.17;;;34.40;38.40;;;;;;5013777;28;20034;-57
2022/08/07 16:54:15;;;;;;;2.35;1.15;;;34.30;38.40;;;;;;5013641;28;20032;-59
2022/08/07 16:57:09;;;;;;;1.60;1.33;;;34.20;38.40;;;;;;5013477;28;20042;-59
2022/08/07 17:00:05;;;;;;;1.30;1.20;;;34.10;39.00;;;;;;4995551;28;20416;-57
2022/08/07 17:02:36;;;;;;;1.80;1.23;;;34.10;39.50;;;;;;5013513;28;20502;-59
2022/08/07 17:05:10;;;;;;;1.92;1.30;;;34.20;39.20;;;;;;5013517;28;20022;-59
2022/08/07 17:07:56;;;;;;;3.83;1.38;;;34.10;39.30;;;;;;5013991;28;20064;-56
2022/08/07 17:10:43;;;;;;;5.20;1.67;;;34.00;39.10;;;;;;5013380;28;20113;-59
2022/08/07 17:13:27;;;;;;;3.15;1.65;;;33.80;39.50;;;;;;5013299;28;20052;-59
2022/08/07 17:16:14;;;;;;;1.58;1.00;;;33.50;40.10;;;;;;5013289;28;20022;-58
2022/08/07 17:18:43;;;;;;;1.30;1.20;;;;;;;;;;5013246;28;20040;-59
2022/08/07 17:21:13;;;;;;;1.70;1.60;;;;;;;;;;5013065;28;20025;-58
2022/08/07 17:23:58;;;;;;;1.30;1.20;;;33.30;40.20;;;;;;5013124;28;20400;-58
2022/08/07 17:26:52;;;;;;;3.25;1.50;;;32.90;41.50;;;;;;5012962;28;20155;-57
2022/08/07 17:29:35;;;;;;;1.55;1.40;;;32.70;41.00;;;;;;5010772;28;20046;-58
2022/08/07 17:32:20;;;;;;;5.30;1.35;;;;;;;;;;5012959;28;20522;-58
2022/08/07 17:34:53;;;;;;;7.57;1.70;;;;;;;;;;5012829;28;20024;-58
2022/08/07 17:37:22;;;;;;;2.88;1.30;;;;;;;;;;5012953;28;20018;-58
2022/08/07 17:39:54;;;;;;;1.83;1.30;;;;;;;;;;5012717;28;20033;-59
2022/08/07 17:42:26;;;;;;;2.25;1.00;;;;;;;;;;5012822;28;20396;-59
2022/08/07 17:44:57;;;;;;;1.75;1.10;;;;;;;;;;5012463;28;20022;-58
2022/08/07 17:47:23;;;;;;;1.40;1.30;;;;;;;;;;5012748;28;20496;-59
2022/08/07 17:50:03;;;;;;;4.00;1.85;;;;;;;;;;5012640;28;20072;-58
2022/08/07 17:52:29;;;;;;;8.57;1.75;;;;;;;;;;5012815;28;20075;-57
2022/08/07 17:55:11;;;;;;;10.82;2.05;;;32.50;41.60;;;;;;5012455;28;20494;-59
2022/08/07 17:57:42;;;;;;;6.05;1.58;;;31.80;43.50;;;;;;5012508;28;20037;-59
2022/08/07 18:00:13;;;;;;;7.65;1.52;;;31.50;43.30;;;;;;5012566;28;20056;-59
2022/08/07 18:02:46;;;;;;;5.45;1.33;;;;;;;;;;5012570;28;20018;-58
2022/08/07 18:05:35;;;;;;;2.47;2.05;;;31.40;43.70;;;;;;5012337;28;20026;-58
2022/08/07 18:08:12;;;;;;;2.08;1.20;;;31.30;44.60;;;;;;4994700;28;20041;-58
2022/08/07 18:10:53;;;;;;;1.40;1.30;;;31.20;44.70;;;;;;4994859;28;20034;-58
2022/08/07 18:13:38;;;;;;;5.90;1.52;;;;;;;;;;5012185;28;20489;-58
2022/08/07 18:16:38;;;;;;;4.25;1.40;;;31.10;45.30;;;;;;5012137;28;20026;-58
2022/08/07 18:19:19;;;;;;;3.33;1.65;;;31.00;45.50;;;;;;5009359;28;20040;-57
2022/08/07 18:22:02;;;;;;;3.53;1.23;;;;;;;;;;5012213;28;20080;-57
2022/08/07 18:24:31;;;;;;;1.63;1.02;;;;;;;;;;5011963;28;20030;-58
2022/08/07 18:27:35;;;;;;;1.42;1.33;;;30.80;46.10;;;;;;5012019;28;20036;-58
2022/08/07 18:30:13;;;;;;;22.83;2.33;;;30.70;46.40;;;;;;5012052;28;20500;-58
2022/08/07 18:32:53;;;;;;;2.42;1.58;;;30.50;47.10;;;;;;5011722;28;20541;-58
2022/08/07 18:36:01;;;;;;;11.85;1.88;;;30.40;46.90;;;;;;5012200;28;20029;-58
2022/08/07 18:38:51;;;;;;;6.05;1.50;;;30.30;47.10;;;;;;4968200;28;20037;-58
2022/08/07 18:41:35;;;;;;;1.92;1.70;;;30.20;47.90;;;;;;5011773;28;20436;-57
2022/08/07 18:44:33;;;;;;;3.78;1.70;;;30.00;47.90;;;;;;5011664;28;20026;-58
2022/08/07 18:47:37;;;;;;;2.78;1.40;;;30.00;48.30;;;;;;5001399;28;20325;-58
2022/08/07 18:50:28;;;;;;;2.58;1.52;;;29.90;47.60;;;;;;5011893;28;20042;-58
2022/08/07 18:53:12;;;;;;;3.05;1.50;;;29.90;48.30;;;;;;5011435;28;20032;-56
2022/08/07 18:56:00;;;;;;;8.52;2.50;;;29.80;48.20;;;;;;5011673;28;20084;-55
2022/08/07 18:59:03;;;;;;;3.63;1.70;;;29.80;48.90;;;;;;5011742;28;20036;-50
2022/08/07 19:01:40;;;;;;;5.05;1.90;;;29.80;49.30;;;;;;4994038;28;20038;-50
2022/08/07 19:04:32;;;;;;;3.65;2.63;;;29.70;49.40;;;;;;5011654;28;20022;-50
2022/08/07 19:07:03;;;;;;;1.95;1.67;;;;;;;;;;4998781;28;20155;-53
2022/08/07 19:09:35;;;;;;;2.42;2.00;;;;;;;;;;4990075;28;20624;-50
2022/08/07 19:12:16;;;;;;;3.20;2.40;;;;;;;;;;4995627;28;20052;-50
2022/08/07 19:14:51;;;;;;;5.65;2.20;;;;;;;;;;4991821;28;20019;-50
2022/08/07 19:17:20;;;;;;;2.47;2.28;;;;;;;;;;4991868;28;20031;-52
2022/08/07 19:20:02;;;;;;;4.82;2.90;;;;;;;;;;4991939;28;20037;-50
2022/08/07 19:22:32;;;;;;;2.63;2.42;;;;;;;;;;4991177;28;20113;-50
2022/08/07 19:25:00;;;;;;;8.43;2.45;;;;;;;;;;4991828;28;20033;-51
2022/08/07 19:27:29;;;;;;;86.57;7.53;;;;;;;;;;4991640;28;20030;-50
2022/08/07 19:30:00;;;;;;;62.25;5.75;;;;;;;;;;4991346;28;20031;-52
2022/08/07 19:32:28;;;;;;;4.95;1.95;;;;;;;;;;4981824;28;20030;-50
2022/08/07 19:35:04;;;;;;;3.85;1.70;;;29.60;49.70;;;;;;4991645;28;20038;-50
2022/08/07 19:37:32;;;;;;;3.67;1.88;;;28.90;51.60;;;;;;4991638;28;20030;-50
2022/08/07 19:40:01;;;;;;;25.00;3.05;;;29.00;51.50;;;;;;4991747;28;20035;-50
2022/08/07 19:42:30;;;;;;;19.70;2.83;;;29.00;51.70;;;;;;4991771;28;20062;-49
2022/08/07 19:45:02;;;;;;;26.92;4.25;;;29.00;51.80;;;;;;4991765;28;20025;-50
2022/08/07 19:47:30;;;;;;;4.30;1.75;;;;;;;;;;4991569;28;20030;-50
2022/08/07 19:49:59;;;;;;;8.07;2.47;;;;;;;;;;4995003;28;20128;-52
2022/08/07 19:52:27;;;;;;;5.43;2.17;;;;;;;;;;4999196;28;20026;-51
2022/08/07 19:54:54;;;;;;;8.40;3.17;;;;;;;;;;4997336;28;20038;-51
2022/08/07 19:57:23;;;;;;;4.30;3.15;;;;;;;;;;4997144;28;20038;-51
2022/08/07 19:59:53;;;;;;;6.05;3.05;;;28.90;51.80;;;;;;4997236;28;20031;-51
2022/08/07 20:02:30;;;;;;;4.60;3.03;;;28.70;52.10;;;;;;5010235;28;20014;-50
2022/08/07 20:04:57;;;;;;;5.18;3.08;;;;;;;;;;4980935;28;20066;-50
2022/08/07 20:07:26;;;;;;;5.15;2.95;;;;;;;;;;5005967;28;20022;-51
2022/08/07 20:09:53;;;;;;;13.90;3.97;;;;;;;;;;4996519;28;20588;-50
2022/08/07 20:12:20;;;;;;;9.73;3.53;;;;;;;;;;4993989;28;20433;-50
2022/08/07 20:14:47;;;;;;;4.10;3.70;;;;;;;;;;5010266;28;20392;-51
2022/08/07 20:17:14;;;;;;;12.95;3.83;;;;;;;;;;4996163;28;20030;-50
2022/08/07 20:19:41;;;;;;;4.57;3.17;;;28.70;52.60;;;;;;4996067;28;20029;-51
2022/08/07 20:22:11;;;;;;;4.63;3.40;;;28.60;52.80;;;;;;4992666;28;20029;-58
2022/08/07 20:24:38;;;;;;;4.25;3.85;;;;;;;;;;4994200;28;20027;-57
2022/08/07 20:27:06;;;;;;;5.35;3.88;;;;;;;;;;4994667;28;20109;-55
2022/08/07 20:29:40;;;;;;;5.40;4.30;;;28.50;53.20;;;;;;4994281;28;20030;-58
2022/08/07 20:32:09;;;;;;;6.22;4.05;;;28.30;53.60;;;;;;4994766;28;20022;-56
2022/08/07 20:34:36;;;;;;;19.38;3.75;;;28.20;54.10;;;;;;4976982;28;20409;-57
2022/08/07 20:37:04;;;;;;;;;;;;;;;;;;4977583;28;20025;-57
2022/08/07 20:39:35;;;;;;;6.40;4.22;;;;;;;;;;4994515;28;19928;-58
2022/08/07 20:42:03;;;;;;;7.75;4.13;;;;;;;;;;4994498;28;20112;-58
2022/08/07 20:44:32;;;;;;;5.45;4.10;;;;;;;;;;4994186;28;20023;-57
2022/08/07 20:46:58;;;;;;;8.65;4.28;;;;;;;;;;4994300;28;20378;-58
2022/08/07 20:49:25;;;;;;;7.30;4.35;;;;;;;;;;4994408;28;20073;-58
2022/08/07 20:51:52;;;;;;;4.88;4.22;;;28.10;54.10;;;;;;4994297;28;20034;-57
2022/08/07 20:54:21;;;;;;;6.60;3.75;;;;;;;;;;4999506;28;20040;-57
2022/08/07 20:56:51;;;;;;;7.13;4.63;;;27.80;55.40;;;;;;5004937;28;20042;-58
2022/08/07 20:59:22;;;;;;;5.22;4.28;;;;;;;;;;4994290;28;20027;-57
2022/08/07 21:01:48;;;;;;;4.88;4.35;;;;;;;;;;4995132;28;20042;-58
2022/08/07 21:04:21;;;;;;;5.90;4.35;;;27.30;56.90;;;;;;4996752;28;20432;-57
2022/08/07 21:06:48;;;;;;;10.00;4.03;;;;;;;;;;4994889;28;20030;-56
2022/08/07 21:09:17;;;;;;;4.10;3.67;;;;;;;;;;5007944;28;20023;-57
2022/08/07 21:11:44;;;;;;;5.65;4.93;;;27.00;57.60;;;;;;4993885;28;20117;-57
2022/08/07 21:14:13;;;;;;;6.35;4.53;;;;;;;;;;4994988;28;20031;-58
2022/08/07 21:16:58;;;;;;;5.07;4.57;;;;;;;;;;5013317;28;20034;-58
2022/08/07 21:19:26;;;;;;;5.78;4.47;;;;;;;;;;5011668;28;20029;-59
2022/08/07 21:21:52;;;;;;;8.23;5.88;;;;;;;;;;5010395;28;20038;-58
2022/08/07 21:24:25;;;;;;;6.00;5.50;;;26.90;58.20;;;;;;5001198;28;20132;-58
2022/08/07 21:27:04;;;;;;;7.13;5.50;;;;;;;;;;5002536;28;20550;-58
2022/08/07 21:29:43;;;;;;;5.47;4.88;;;;;;;;;;4995142;28;20065;-57
2022/08/07 21:32:20;;;;;;;12.07;5.60;;;;;;;;;;5011401;28;20485;-57
2022/08/07 21:34:57;;;;;;;7.28;5.80;;;;;;;;;;5012612;28;20443;-58
2022/08/07 21:37:42;;;;;;;6.78;4.97;;;;;;;;;;5001344;28;20114;-57
2022/08/07 21:40:10;;;;;;;5.55;5.05;;;;;;;;;;5007999;28;20307;-59
2022/08/07 21:42:36;;;;;;;6.25;5.60;;;;;;;;;;5011353;28;20029;-59
2022/08/07 21:45:05;;;;;;;5.27;4.77;;;;;;;;;;5003970;28;20493;-57
2022/08/07 21:47:31;;;;;;;7.90;5.45;;;;;;;;;;4992634;28;20306;-58
2022/08/07 21:50:09;;;;;;;5.97;5.43;;;26.50;59.70;;;;;;4993325;28;20477;-58
2022/08/07 21:53:04;;;;;;;15.63;6.22;;;26.60;59.40;;;;;;4978114;28;20271;-59
2022/08/07 21:55:47;;;;;;;7.43;5.97;;;;;;;;;;4996265;28;20572;-58
2022/08/07 21:58:32;;;;;;;6.90;6.00;;;;;;;;;;4977643;28;20034;-58
2022/08/07 22:01:00;;;;;;;7.30;6.50;;;;;;;;;;4981880;28;20507;-58
2022/08/07 22:03:32;;;;;;;5.85;5.35;;;;;;;;;;5011919;28;20369;-58
2022/08/07 22:06:10;;;;;;;8.93;6.15;;;26.50;59.40;;;;;;4995200;28;20027;-57
2022/08/07 22:08:50;;;;;;;9.45;6.25;;;26.20;61.60;;;;;;5009667;28;20033;-58
2022/08/07 22:11:17;;;;;;;14.88;6.10;;;;;;;;;;4992642;28;20030;-58
2022/08/07 22:13:45;;;;;;;7.93;6.03;;;;;;;;;;4992026;28;20030;-58
2022/08/07 22:16:14;;;;;;;7.47;6.15;;;;;;;;;;5007746;28;20432;-58
2022/08/07 22:18:48;;;;;;;7.75;6.35;;;26.20;61.70;;;;;;4991609;28;20034;-58
2022/08/07 22:21:37;;;;;;;6.63;6.03;;;26.40;59.90;;;;;;5010783;28;20081;-58
2022/08/07 22:24:08;;;;;;;8.63;7.72;;;;;;;;;;5007040;28;20489;-59
2022/08/07 22:26:52;;;;;;;8.02;7.00;;;;;;;;;;4992541;28;20054;-57
2022/08/07 22:29:29;;;;;;;7.68;6.05;;;;;;;;;;4995351;28;20102;-57
2022/08/07 22:31:58;;;;;;;12.43;7.72;;;;;;;;;;5010496;28;20489;-58
2022/08/07 22:34:47;;;;;;;7.15;6.38;;;;;;;;;;5012077;28;20503;-58
2022/08/07 22:37:13;;;;;;;8.88;7.35;;;;;;;;;;4989799;28;20046;-58
2022/08/07 22:39:40;;;;;;;14.13;6.40;;;;;;;;;;4998696;28;20026;-56
2022/08/07 22:42:14;;;;;;;9.35;8.00;;;;;;;;;;4994466;28;20265;-58
2022/08/07 22:44:42;;;;;;;11.48;9.65;;;;;;;;;;4998808;28;20389;-58
2022/08/07 22:47:20;;;;;;;11.73;10.45;;;;;;;;;;4993099;28;20026;-59
2022/08/07 22:50:06;;;;;;;10.48;9.38;;;26.40;60.20;;;;;;4992197;28;20026;-58
2022/08/07 22:52:35;;;;;;;11.93;10.65;;;;;;;;;;4991882;28;20500;-57
2022/08/07 22:55:20;;;;;;;14.23;10.73;;;;;;;;;;4991934;28;20057;-56
2022/08/07 22:58:10;;;;;;;16.33;11.00;;;;;;;;;;4992339;28;20026;-58
2022/08/07 23:00:39;;;;;;;16.10;11.00;;;;;;;;;;4996767;28;20030;-57
2022/08/07 23:03:24;;;;;;;11.75;10.60;;;;;;;;;;4991945;28;20033;-57
2022/08/07 23:06:08;;;;;;;12.98;11.43;;;;;;;;;;4993599;28;20030;-59
2022/08/07 23:08:53;;;;;;;12.48;10.43;;;;;;;;;;5086894;22;20049;-62
2022/08/07 23:11:28;;;;;;;14.02;10.80;;;;;;;;;;5071118;28;20518;-62
2022/08/07 23:13:57;;;;;;;15.50;10.68;;;;;;;;;;5070835;28;20024;-62
2022/08/07 23:16:38;;;;;;;15.30;12.60;;;;;;;;;;5071140;28;20036;-62
2022/08/07 23:22:40;;;;;;;14.52;12.18;;;;;;;;;;5031608;28;20044;-62
2022/08/07 23:25:15;;;;;;;16.73;12.13;;;;;;;;;;5013145;28;20033;-62
2022/08/07 23:27:47;;;;;;;14.45;12.65;;;;;;;;;;5033314;28;20021;-62
2022/08/07 23:30:14;;;;;;;14.80;13.30;;;;;;;;;;5051628;28;20499;-62
2022/08/07 23:32:40;;;;;;;;;;;;;;;;;;5040618;28;20092;-62
2022/08/07 23:35:15;;;;;;;21.38;13.00;;;;;;;;;;5054791;28;19962;-62
2022/08/07 23:37:53;;;;;;;14.00;12.63;;;;;;;;;;5054487;28;20041;-62
2022/08/07 23:40:22;;;;;;;18.08;13.25;;;;;;;;;;5054413;28;20115;-62
2022/08/07 23:42:51;;;;;;;14.25;12.85;;;;;;;;;;5054488;28;20437;-62
2022/08/07 23:45:24;;;;;;;15.38;13.90;;;;;;;;;;5054320;28;20059;-62
2022/08/07 23:47:50;;;;;;;15.63;14.00;;;;;;;;;;5054488;28;20029;-62
2022/08/07 23:50:22;;;;;;;14.77;13.17;;;;;;;;;;5054438;28;20059;-62
2022/08/07 23:52:51;;;;;;;14.23;12.70;;;;;;;;;;5054054;28;20029;-63
2022/08/07 23:55:31;;;;;;;15.50;13.48;;;;;;;;;;5036333;28;20458;-62
2022/08/07 23:58:03;;;;;;;15.25;12.90;;;;;;;;;;5054452;28;20036;-62
